Time;durP1;ratioP1;P1;durP2;ratioP2;P2;SDS_P1;SDS_P2;PMS_P1;PMS_P2;Temp;Humidity;BMP_temperature;BMP_pressure;BME280_temperature;BME280_humidity;BME280_pressure;Samples;Min_cycle;Max_cycle;Signal;HPM_P1;HPM_P2
2021/05/15 00:01:11;;;;;;;18.48;14.80;;;;;;;13.96;66.06;99982.75;5091882;28;20024;-65
2021/05/15 00:03:37;;;;;;;19.13;15.48;;;;;;;14.07;66.63;99973.59;5073564;28;20031;-64
2021/05/15 00:06:03;;;;;;;15.68;13.95;;;;;;;14.40;65.31;99964.47;5073917;28;20116;-65
2021/05/15 00:08:28;;;;;;;17.02;14.38;;;;;;;14.28;65.56;99961.34;5089706;28;20094;-64
2021/05/15 00:10:54;;;;;;;14.77;12.23;;;;;;;13.74;65.53;99956.09;5072516;28;20021;-64
2021/05/15 00:13:19;;;;;;;13.55;12.15;;;;;;;13.38;68.83;99957.28;5070276;28;20044;-65
2021/05/15 00:15:45;;;;;;;10.95;9.95;;;;;;;13.71;66.54;99945.63;5087353;28;20032;-65
2021/05/15 00:18:11;;;;;;;12.38;10.70;;;;;;;13.85;65.27;99938.06;5090133;28;20035;-65
2021/05/15 00:20:36;;;;;;;10.32;9.32;;;;;;;13.38;68.46;99937.84;5073135;28;20036;-65
2021/05/15 00:23:01;;;;;;;9.93;8.93;;;;;;;13.65;66.50;99930.81;5071347;28;20493;-64
2021/05/15 00:25:27;;;;;;;11.85;9.32;;;;;;;14.14;64.57;99931.78;5078099;28;20027;-64
2021/05/15 00:27:52;;;;;;;10.18;9.07;;;;;;;13.67;65.76;99933.41;5090794;28;20372;-64
2021/05/15 00:30:18;;;;;;;10.77;9.43;;;;;;;13.64;66.34;99930.84;5092606;28;20035;-64
2021/05/15 00:32:43;;;;;;;11.18;9.48;;;;;;;11.53;71.83;99923.66;5082330;28;20028;-64
2021/05/15 00:35:10;;;;;;;10.18;9.15;;;;;;;12.48;72.63;99936.16;5086450;28;20029;-63
2021/05/15 00:37:35;;;;;;;11.48;10.18;;;;;;;13.26;68.07;99933.81;5075012;28;20091;-63
2021/05/15 00:40:01;;;;;;;11.20;10.10;;;;;;;13.08;68.83;99925.56;5090118;28;20471;-64
2021/05/15 00:42:26;;;;;;;10.35;9.40;;;;;;;13.33;65.79;99928.28;5086757;28;20048;-64
2021/05/15 00:44:51;;;;;;;10.13;8.98;;;;;;;12.65;68.79;99933.91;5073839;28;20036;-64
2021/05/15 00:47:18;;;;;;;10.43;9.35;;;;;;;12.58;68.98;99927.91;5074691;28;20020;-64
2021/05/15 00:49:44;;;;;;;9.77;8.77;;;;;;;12.65;68.91;99938.31;5073766;28;20446;-64
2021/05/15 00:52:10;;;;;;;9.43;8.40;;;;;;;12.70;69.61;99942.56;5074931;28;20036;-65
2021/05/15 00:54:40;;;;;;;10.65;8.95;;;;;;;12.96;67.28;99937.38;5073769;28;20448;-64
2021/05/15 00:57:07;;;;;;;11.38;10.15;;;;;;;12.76;67.87;99940.63;5084508;28;20107;-64
2021/05/15 00:59:33;;;;;;;11.68;9.80;;;;;;;12.61;69.06;99937.56;5073520;28;20055;-64
2021/05/15 01:01:58;;;;;;;12.05;10.80;;;;;;;13.01;67.80;99938.09;5085618;28;20028;-65
2021/05/15 01:04:24;;;;;;;11.15;10.05;;;;;;;13.49;65.73;99942.81;5093831;28;20031;-65
2021/05/15 01:06:50;;;;;;;9.70;8.75;;;;;;;13.36;63.19;99940.53;5093307;28;20490;-65
2021/05/15 01:09:16;;;;;;;10.75;9.75;;;;;;;12.80;66.07;99931.69;5092012;28;20031;-64
2021/05/15 01:11:41;;;;;;;10.57;9.60;;;;;;;12.64;66.91;99942.72;5093559;28;20024;-64
2021/05/15 01:14:06;;;;;;;12.07;10.13;;;;;;;13.45;63.93;99947.34;5084689;28;20433;-64
2021/05/15 01:16:32;;;;;;;10.60;9.60;;;;;;;12.63;65.35;99927.78;5074254;28;20527;-64
2021/05/15 01:18:58;;;;;;;9.70;8.70;;;;;;;11.92;68.37;99934.13;5074405;28;20030;-64
2021/05/15 01:21:24;;;;;;;8.65;7.80;;;;;;;11.86;68.52;99938.66;5073244;28;20099;-64
2021/05/15 01:23:49;;;;;;;9.88;8.70;;;;;;;12.57;66.55;99936.75;5074284;28;20034;-64
2021/05/15 01:26:17;;;;;;;10.70;9.57;;;;;;;13.18;63.73;99934.91;5072682;28;20025;-64
2021/05/15 01:28:43;;;;;;;11.48;9.82;;;;;;;13.16;63.02;99934.13;5073337;28;20036;-64
2021/05/15 01:31:08;;;;;;;9.73;8.82;;;;;;;13.00;62.84;99931.06;5075147;28;20028;-63
2021/05/15 01:33:34;;;;;;;10.82;9.73;;;;;;;12.82;63.57;99929.88;5072873;28;20387;-64
2021/05/15 01:35:59;;;;;;;11.18;10.07;;;;;;;12.49;65.16;99932.59;5088931;28;20390;-64
2021/05/15 01:38:24;;;;;;;8.80;7.93;;;;;;;12.02;66.14;99933.84;5093204;28;20119;-65
2021/05/15 01:40:49;;;;;;;10.02;8.77;;;;;;;12.15;65.49;99929.13;5093841;28;20031;-65
2021/05/15 01:43:21;;;;;;;10.55;9.55;;;;;;;12.08;65.59;99931.09;5093161;28;20051;-64
2021/05/15 01:45:46;;;;;;;11.13;10.02;;;;;;;12.39;64.35;99922.28;5089135;28;20038;-65
2021/05/15 01:48:18;;;;;;;11.90;10.68;;;;;;;11.45;68.64;99939.69;5072592;28;20025;-64
2021/05/15 01:51:14;;;;;;;13.90;11.43;;;;;;;11.08;68.37;99930.91;5080119;28;20025;-63
2021/05/15 01:53:41;;;;;;;12.52;9.00;;;;;;;11.35;68.05;99932.91;5094100;28;20027;-64
2021/05/15 01:56:11;;;;;;;10.93;9.73;;;;;;;11.50;67.78;99931.66;5088395;28;20492;-64
2021/05/15 01:58:37;;;;;;;10.52;9.43;;;;;;;11.49;66.49;99925.50;5090832;28;20395;-64
2021/05/15 02:01:03;;;;;;;17.25;10.55;;;;;;;11.18;67.94;99925.38;5093064;28;20028;-64
2021/05/15 02:03:29;;;;;;;11.00;9.98;;;;;;;10.73;68.57;99930.78;5092651;28;20023;-64
2021/05/15 02:05:55;;;;;;;12.63;9.95;;;;;;;10.59;70.26;99933.72;5090898;28;20480;-66
2021/05/15 02:08:22;;;;;;;11.52;10.40;;;;;;;9.87;72.09;99929.78;5092446;28;20157;-64
2021/05/15 02:10:48;;;;;;;10.73;9.65;;;;;;;9.89;72.71;99927.13;5092875;28;20042;-64
2021/05/15 02:13:14;;;;;;;10.75;9.45;;;;;;;9.86;73.98;99919.28;5091674;28;20036;-64
2021/05/15 02:15:39;;;;;;;9.82;8.90;;;;;;;9.87;72.18;99919.25;5093081;28;20023;-64
2021/05/15 02:18:05;;;;;;;9.50;8.60;;;;;;;9.81;72.85;99916.75;5092230;28;20020;-64
2021/05/15 02:20:32;;;;;;;9.38;8.35;;;;;;;10.26;69.56;99915.88;5092251;28;20210;-64
2021/05/15 02:22:57;;;;;;;8.52;7.72;;;;;;;10.91;68.94;99908.38;5092191;28;20027;-64
2021/05/15 02:25:24;;;;;;;10.27;8.35;;;;;;;10.24;69.11;99907.13;5091547;28;20028;-64
2021/05/15 02:27:49;;;;;;;8.88;7.97;;;;;;;9.96;70.62;99906.78;5091112;28;20024;-64
2021/05/15 02:30:15;;;;;;;9.55;7.75;;;;;;;10.46;68.24;99900.56;5091802;28;20039;-64
2021/05/15 02:32:40;;;;;;;12.63;7.85;;;;;;;10.52;66.84;99901.34;5092033;28;20102;-63
2021/05/15 02:35:06;;;;;;;10.20;9.02;;;;;;;9.80;70.45;99899.19;5082108;28;20395;-64
2021/05/15 02:37:32;;;;;;;7.90;7.10;;;;;;;10.53;67.83;99891.63;5073828;28;20020;-64
2021/05/15 02:39:57;;;;;;;12.05;8.43;;;;;;;10.19;69.08;99897.56;5088005;28;20028;-64
2021/05/15 02:42:22;;;;;;;10.25;9.20;;;;;;;10.14;69.33;99901.19;5092751;28;20028;-64
2021/05/15 02:44:48;;;;;;;12.60;9.85;;;;;;;9.88;69.79;99905.16;5091418;28;20651;-63
2021/05/15 02:47:13;;;;;;;12.38;9.55;;;;;;;9.73;70.72;99906.34;5074481;28;20487;-65
2021/05/15 02:49:38;;;;;;;9.73;8.73;;;;;;;10.60;68.30;99895.88;5072546;28;20028;-65
2021/05/15 02:52:04;;;;;;;10.57;9.57;;;;;;;9.80;70.03;99895.69;5092573;28;20032;-65
2021/05/15 02:54:29;;;;;;;11.75;10.10;;;;;;;9.79;70.17;99900.09;5081202;28;20592;-64
2021/05/15 02:56:55;;;;;;;11.95;10.80;;;;;;;9.62;71.73;99897.75;5072297;28;20407;-64
2021/05/15 02:59:20;;;;;;;9.55;8.65;;;;;;;10.42;66.73;99888.31;5072288;28;20025;-64
2021/05/15 03:01:45;;;;;;;9.80;8.80;;;;;;;10.67;65.17;99893.13;5072431;28;20065;-63
2021/05/15 03:04:11;;;;;;;9.57;8.50;;;;;;;9.65;69.21;99886.28;5088351;28;20020;-64
2021/05/15 03:06:36;;;;;;;10.88;9.77;;;;;;;10.24;67.11;99879.91;5092050;28;20389;-64
2021/05/15 03:09:02;;;;;;;11.15;10.05;;;;;;;9.52;69.32;99890.91;5073991;28;20403;-63
2021/05/15 03:11:27;;;;;;;12.23;10.90;;;;;;;9.59;71.59;99884.63;5072509;28;20028;-64
2021/05/15 03:13:52;;;;;;;11.15;9.40;;;;;;;10.43;67.58;99887.44;5071150;28;20032;-64
2021/05/15 03:16:18;;;;;;;11.32;10.32;;;;;;;10.86;65.15;99886.53;5085999;28;20027;-64
2021/05/15 03:18:43;;;;;;;9.55;8.50;;;;;;;11.11;63.34;99888.56;5092358;28;20534;-64
2021/05/15 03:21:08;;;;;;;8.75;7.85;;;;;;;10.59;62.62;99891.53;5088230;28;20575;-64
2021/05/15 03:23:34;;;;;;;9.63;8.63;;;;;;;10.03;66.41;99894.41;5085377;28;20031;-64
2021/05/15 03:25:59;;;;;;;10.25;9.25;;;;;;;9.95;66.25;99890.13;5088880;28;20028;-65
2021/05/15 03:28:24;;;;;;;12.05;9.55;;;;;;;9.79;67.43;99905.34;5091878;28;20032;-65
2021/05/15 03:30:50;;;;;;;12.10;10.73;;;;;;;9.52;69.35;99902.31;5076337;28;20036;-65
2021/05/15 03:33:15;;;;;;;10.90;9.80;;;;;;;10.21;67.17;99906.34;5071065;28;20287;-65
2021/05/15 03:35:41;;;;;;;11.70;9.88;;;;;;;10.13;67.23;99910.00;5062981;28;20020;-65
2021/05/15 03:38:06;;;;;;;10.15;8.35;;;;;;;10.00;67.20;99911.09;5092032;28;20020;-64
2021/05/15 03:40:31;;;;;;;10.32;9.32;;;;;;;10.03;66.61;99903.16;5090398;28;20077;-65
2021/05/15 03:42:57;;;;;;;11.85;10.25;;;;;;;9.70;68.93;99908.16;5091809;28;20055;-65
2021/05/15 03:45:22;;;;;;;12.18;10.60;;;;;;;10.01;67.45;99902.31;5091437;28;20059;-65
2021/05/15 03:47:48;;;;;;;12.02;9.98;;;;;;;9.74;68.00;99912.47;5089955;28;20060;-66
2021/05/15 03:50:13;;;;;;;13.10;11.60;;;;;;;9.49;69.28;99918.16;5087622;28;20028;-64
2021/05/15 03:52:39;;;;;;;13.40;11.38;;;;;;;9.75;68.88;99927.38;5091989;28;20055;-64
2021/05/15 03:55:05;;;;;;;13.85;11.88;;;;;;;10.13;67.61;99923.16;5088805;28;20028;-64
2021/05/15 03:57:30;;;;;;;12.68;11.32;;;;;;;10.64;64.56;99920.44;5089149;28;20069;-64
2021/05/15 03:59:55;;;;;;;16.25;11.13;;;;;;;10.36;65.37;99920.97;5074386;28;20422;-64
2021/05/15 04:02:24;;;;;;;10.88;9.60;;;;;;;10.75;64.44;99928.09;5073255;28;20028;-64
2021/05/15 04:04:50;;;;;;;11.98;10.38;;;;;;;11.32;61.74;99922.41;5071739;28;20104;-64
2021/05/15 04:07:16;;;;;;;12.77;11.18;;;;;;;10.39;66.74;99919.16;5074252;28;20024;-64
2021/05/15 04:09:41;;;;;;;11.82;10.60;;;;;;;11.20;63.19;99924.44;5075608;28;20024;-64
2021/05/15 04:12:07;;;;;;;11.43;9.73;;;;;;;11.51;61.79;99917.56;5075724;28;20086;-64
2021/05/15 04:17:20;;;;;;;12.75;11.43;;;;;;;11.90;61.04;99920.06;5074438;28;20031;-64
2021/05/15 04:19:46;;;;;;;15.02;11.65;;;;;;;11.24;63.27;99926.09;5088022;28;20499;-64
2021/05/15 04:22:11;;;;;;;16.77;13.60;;;;;;;11.16;67.23;99918.38;5075335;28;20032;-64
2021/05/15 04:24:36;;;;;;;15.73;14.00;;;;;;;10.82;70.41;99924.44;5075444;28;20034;-64
2021/05/15 04:27:04;;;;;;;17.67;15.82;;;;;;;11.60;67.17;99922.59;5087597;28;20430;-64
2021/05/15 04:29:30;;;;;;;18.45;15.57;;;;;;;11.07;68.49;99926.50;5091875;28;20554;-64
2021/05/15 04:31:58;;;;;;;22.98;17.95;;;;;;;14.65;61.41;99929.06;5078713;28;20032;-64
2021/05/15 04:34:24;;;;;;;17.40;15.60;;;;;;;17.84;50.75;99924.81;5075481;28;20170;-64
2021/05/15 04:36:50;;;;;;;15.07;13.57;;;;;;;19.99;45.41;99920.16;5075161;28;20086;-65
2021/05/15 04:39:16;;;;;;;15.07;12.45;;;;;;;20.38;43.38;99929.38;5075104;28;20040;-65
2021/05/15 04:41:41;;;;;;;13.30;11.90;;;;;;;19.79;44.88;99932.91;5073950;28;20115;-66
2021/05/15 04:44:07;;;;;;;12.65;11.27;;;;;;;19.25;47.21;99928.91;5088358;28;20107;-65
2021/05/15 04:46:32;;;;;;;12.73;9.90;;;;;;;20.11;46.68;99938.16;5093698;28;20027;-65
2021/05/15 04:48:57;;;;;;;11.15;9.95;;;;;;;22.57;40.35;99957.19;5095251;28;20027;-66
2021/05/15 04:51:23;;;;;;;9.77;8.88;;;;;;;23.77;36.75;99940.41;5088610;28;20028;-66
2021/05/15 04:53:48;;;;;;;11.52;9.15;;;;;;;22.07;38.85;99929.22;5099881;28;20047;-65
2021/05/15 04:56:15;;;;;;;10.60;9.15;;;;;;;19.72;43.83;99924.41;5090947;28;20028;-65
2021/05/15 04:58:40;;;;;;;10.55;9.52;;;;;;;18.70;48.18;99929.22;5080479;28;20038;-64
2021/05/15 05:01:06;;;;;;;9.15;8.35;;;;;;;17.01;51.63;99925.34;5111680;28;20024;-64
2021/05/15 05:03:31;;;;;;;9.88;8.88;;;;;;;15.64;55.82;99933.09;5084317;28;20028;-64
2021/05/15 05:05:56;;;;;;;11.02;9.23;;;;;;;16.10;54.57;99928.56;5060535;28;20028;-64
2021/05/15 05:08:24;;;;;;;9.82;8.82;;;;;;;15.76;55.69;99930.88;5077750;28;20174;-65
2021/05/15 05:10:49;;;;;;;9.95;9.05;;;;;;;15.33;56.80;99923.75;5073720;28;20035;-64
2021/05/15 05:13:15;;;;;;;10.07;8.77;;;;;;;14.18;59.93;99926.34;5079133;28;20024;-64
2021/05/15 05:15:40;;;;;;;9.48;8.35;;;;;;;13.24;63.81;99936.50;5083798;28;20020;-64
2021/05/15 05:18:05;;;;;;;9.30;8.43;;;;;;;13.38;64.11;99929.91;5078097;28;20491;-65
2021/05/15 05:20:30;;;;;;;9.40;8.55;;;;;;;13.31;63.99;99931.91;5098925;28;20035;-64
2021/05/15 05:22:56;;;;;;;10.38;7.82;;;;;;;13.53;63.72;99936.50;5074344;28;20025;-65
2021/05/15 05:25:22;;;;;;;7.93;7.18;;;;;;;19.81;49.51;99943.53;5073215;28;20029;-65
2021/05/15 05:27:48;;;;;;;7.25;6.55;;;;;;;25.14;36.58;99934.25;5083761;28;20048;-65
2021/05/15 05:30:21;;;;;;;6.47;5.88;;;;;;;26.44;33.82;99937.78;5093242;28;20043;-65
2021/05/15 05:32:49;;;;;;;5.05;4.55;;;;;;;25.82;35.09;99938.53;5089291;28;20022;-67
2021/05/15 05:35:14;;;;;;;5.05;4.65;;;;;;;24.64;37.33;99932.81;5072744;28;20020;-66
2021/05/15 05:37:41;;;;;;;5.35;4.95;;;;;;;23.02;39.84;99932.47;5073939;28;20055;-65
2021/05/15 05:40:07;;;;;;;6.65;4.38;;;;;;;18.01;50.70;99937.28;5072808;28;20378;-65
2021/05/15 05:42:32;;;;;;;6.03;5.47;;;;;;;17.03;53.22;99940.31;5072446;28;20020;-65
2021/05/15 05:44:58;;;;;;;13.52;12.20;;;;;;;16.21;56.68;99944.06;5073986;28;20020;-65
2021/05/15 05:47:23;;;;;;;5.22;4.72;;;;;;;17.26;53.48;99946.34;5073921;28;20064;-65
2021/05/15 05:49:48;;;;;;;5.20;4.80;;;;;;;16.64;55.72;99946.56;5073948;28;20530;-65
2021/05/15 05:52:14;;;;;;;5.35;4.85;;;;;;;17.09;54.91;99943.63;5082630;28;20017;-65
2021/05/15 05:54:40;;;;;;;6.38;5.70;;;;;;;19.48;48.35;99940.09;5078940;28;20020;-65
2021/05/15 05:57:05;;;;;;;5.82;5.32;;;;;;;21.35;43.32;99944.75;5075987;28;20534;-64
2021/05/15 05:59:30;;;;;;;5.55;5.05;;;;;;;23.87;39.17;99940.56;5073574;28;20024;-64
2021/05/15 06:01:55;;;;;;;5.60;4.53;;;;;;;26.14;34.05;99948.38;5078349;28;20493;-66
2021/05/15 06:04:21;;;;;;;5.80;4.97;;;;;;;25.55;37.19;99953.34;5081659;28;20021;-66
2021/05/15 06:06:46;;;;;;;4.32;4.03;;;;;;;24.43;40.25;99947.91;5078474;28;20105;-65
2021/05/15 06:09:12;;;;;;;4.55;4.15;;;;;;;28.64;31.74;99937.50;5087919;28;20020;-67
2021/05/15 06:11:38;;;;;;;3.92;3.63;;;;;;;25.27;37.51;99945.72;5094741;28;20028;-64
2021/05/15 06:14:03;;;;;;;3.97;3.65;;;;;;;24.77;36.87;99944.31;5088123;28;20069;-65
2021/05/15 06:16:28;;;;;;;3.33;3.08;;;;;;;24.28;38.05;99949.13;5080842;28;20016;-65
2021/05/15 06:18:54;;;;;;;4.35;3.60;;;;;;;25.09;37.21;99942.72;5073307;28;20416;-65
2021/05/15 06:21:19;;;;;;;5.15;3.70;;;;;;;26.84;33.85;99944.19;5071985;28;20082;-65
2021/05/15 06:23:44;;;;;;;3.30;3.10;;;;;;;21.83;43.10;99943.38;5073660;28;20029;-67
2021/05/15 06:26:10;;;;;;;5.18;4.00;;;;;;;23.65;41.36;99945.75;5060916;28;20104;-66
